createdAt,value
2018-05-29T00:02:44.657Z,59.70
2018-05-29T00:06:17.148Z,60.00
2018-05-29T00:09:49.624Z,60.50
2018-05-29T00:13:22.123Z,61.00
2018-05-29T00:16:54.621Z,61.60
2018-05-29T00:20:27.859Z,62.50
2018-05-29T00:24:00.360Z,62.50
2018-05-29T00:27:32.834Z,62.90
2018-05-29T00:31:05.328Z,63.20
2018-05-29T00:34:37.828Z,63.60
2018-05-29T00:38:10.310Z,63.80
2018-05-29T00:41:42.800Z,64.00
2018-05-29T00:45:16.049Z,64.20
2018-05-29T00:48:48.544Z,64.20
2018-05-29T00:52:21.032Z,64.40
2018-05-29T00:55:53.512Z,64.60
2018-05-29T00:59:26.004Z,64.90
2018-05-29T01:02:58.501Z,65.00
2018-05-29T01:06:31.004Z,65.10
2018-05-29T01:10:04.256Z,65.50
2018-05-29T01:13:36.753Z,65.50
2018-05-29T01:17:09.228Z,65.60
2018-05-29T01:20:41.725Z,65.80
2018-05-29T01:24:14.205Z,65.80
2018-05-29T01:27:46.709Z,66.20
2018-05-29T01:31:19.186Z,66.30
2018-05-29T01:34:51.677Z,66.50
2018-05-29T01:38:24.977Z,66.90
2018-05-29T01:41:58.228Z,67.00
2018-05-29T01:45:30.712Z,67.00
2018-05-29T01:49:03.188Z,67.10
2018-05-29T01:52:35.685Z,67.20
2018-05-29T01:56:08.160Z,67.30
2018-05-29T01:59:40.654Z,67.20
2018-05-29T02:03:13.140Z,67.10
2018-05-29T02:06:45.631Z,67.40
2018-05-29T02:10:18.125Z,67.50
2018-05-29T02:13:51.392Z,67.90
2018-05-29T02:17:23.882Z,67.80
2018-05-29T02:20:56.365Z,68.00
2018-05-29T02:24:28.853Z,68.20
2018-05-29T02:28:01.372Z,68.40
2018-05-29T02:31:33.843Z,68.80
2018-05-29T02:35:07.099Z,69.20
2018-05-29T02:38:39.577Z,69.20
2018-05-29T02:42:12.067Z,69.00
2018-05-29T02:45:44.563Z,69.00
2018-05-29T02:49:17.034Z,68.90
2018-05-29T02:52:49.570Z,69.00
2018-05-29T02:56:22.024Z,69.40
2018-05-29T02:59:55.269Z,69.70
2018-05-29T03:03:28.521Z,70.00
2018-05-29T03:07:01.760Z,70.50
2018-05-29T03:10:34.248Z,70.00
2018-05-29T03:14:06.736Z,70.20
2018-05-29T03:17:39.228Z,70.30
2018-05-29T03:21:11.704Z,70.30
2018-05-29T03:24:44.191Z,70.50
2018-05-29T03:28:16.689Z,70.50
2018-05-29T03:31:49.173Z,70.40
2018-05-29T03:35:21.660Z,70.40
2018-05-29T03:38:54.136Z,70.10
2018-05-29T03:42:26.641Z,70.10
2018-05-29T03:45:59.116Z,70.30
2018-05-29T03:49:31.628Z,70.50
2018-05-29T03:53:04.105Z,70.70
2018-05-29T03:56:37.363Z,71.10
2018-05-29T04:00:09.835Z,71.10
2018-05-29T04:03:42.338Z,71.10
2018-05-29T04:07:15.638Z,71.20
2018-05-29T04:10:48.134Z,71.20
2018-05-29T04:14:20.609Z,71.30
2018-05-29T04:17:53.116Z,72.10
2018-05-29T04:21:26.358Z,71.10
2018-05-29T04:24:58.855Z,71.00
2018-05-29T04:28:31.332Z,70.90
2018-05-29T04:32:03.815Z,70.60
2018-05-29T04:35:36.321Z,70.50
2018-05-29T04:39:08.813Z,70.40
2018-05-29T04:42:42.065Z,70.40
2018-05-29T04:46:14.567Z,70.40
2018-05-29T04:49:47.043Z,70.30
2018-05-29T04:53:19.548Z,70.10
2018-05-29T04:56:52.022Z,69.90
2018-05-29T05:00:24.526Z,69.50
2018-05-29T05:03:57.770Z,69.10
2018-05-29T05:07:30.270Z,69.10
2018-05-29T05:11:02.758Z,68.90
2018-05-29T05:14:35.256Z,68.60
2018-05-29T05:18:07.758Z,68.40
2018-05-29T05:21:40.995Z,68.40
2018-05-29T05:25:13.491Z,68.40
2018-05-29T05:28:45.973Z,68.40
2018-05-29T05:32:18.481Z,68.10
2018-05-29T05:35:50.955Z,67.90
2018-05-29T05:39:23.460Z,67.60
2018-05-29T05:42:56.707Z,67.30
2018-05-29T05:46:29.203Z,67.20
2018-05-29T05:50:01.692Z,66.90
2018-05-29T05:53:34.181Z,66.50
2018-05-29T05:57:06.670Z,66.40
2018-05-29T06:00:39.168Z,66.00
2018-05-29T06:04:12.423Z,65.40
2018-05-29T06:07:44.942Z,65.30
2018-05-29T06:11:17.439Z,64.60
2018-05-29T06:14:50.695Z,63.90
2018-05-29T06:18:23.183Z,63.80
2018-05-29T06:21:55.669Z,63.60
2018-05-29T06:25:28.157Z,63.20
2018-05-29T06:29:00.633Z,62.50
2018-05-29T06:32:33.119Z,62.10
2018-05-29T06:36:05.621Z,61.40
2018-05-29T06:39:38.099Z,61.30
2018-05-29T06:43:10.583Z,60.50
2018-05-29T06:46:43.068Z,60.00
2018-05-29T06:50:16.332Z,59.50
2018-05-29T06:53:48.808Z,58.90
2018-05-29T06:57:21.299Z,58.70
2018-05-29T07:00:53.812Z,58.40
2018-05-29T07:04:26.292Z,57.90
2018-05-29T07:07:58.775Z,58.30
2018-05-29T07:11:31.251Z,57.20
2018-05-29T07:15:03.755Z,56.30
2018-05-29T07:18:37.037Z,56.10
2018-05-29T07:22:09.519Z,56.00
2018-05-29T07:25:42.010Z,55.70
2018-05-29T07:29:14.507Z,55.50
2018-05-29T07:32:47.003Z,55.50
2018-05-29T07:36:19.488Z,55.40
2018-05-29T07:39:51.995Z,55.30
2018-05-29T07:43:24.500Z,55.00
2018-05-29T07:46:56.971Z,54.90
2018-05-29T07:50:29.458Z,54.70
2018-05-29T07:54:01.941Z,54.30
2018-05-29T07:57:34.458Z,53.90
2018-05-29T08:01:07.717Z,53.40
2018-05-29T08:04:40.201Z,53.30
2018-05-29T08:08:12.680Z,52.90
2018-05-29T08:11:45.165Z,52.90
2018-05-29T08:15:17.668Z,52.70
2018-05-29T08:18:50.162Z,53.20
2018-05-29T08:22:23.406Z,52.00
2018-05-29T08:25:55.887Z,51.90
2018-05-29T08:29:28.376Z,51.70
2018-05-29T08:33:00.862Z,51.80
2018-05-29T08:36:33.351Z,51.90
2018-05-29T08:40:05.864Z,51.80
2018-05-29T08:43:39.618Z,51.10
2018-05-29T08:47:12.119Z,50.40
2018-05-29T08:50:44.617Z,50.00
2018-05-29T08:54:17.116Z,49.70
2018-05-29T08:57:49.584Z,49.80
2018-05-29T09:01:22.075Z,49.00
2018-05-29T09:04:54.558Z,48.20
2018-05-29T09:08:27.054Z,47.70
2018-05-29T09:12:00.305Z,46.40
2018-05-29T09:15:32.801Z,46.30
2018-05-29T09:19:05.301Z,46.00
2018-05-29T09:22:37.775Z,46.40
2018-05-29T09:26:10.260Z,46.60
2018-05-29T09:29:42.827Z,45.50
2018-05-29T09:33:16.011Z,44.70
2018-05-29T09:36:48.501Z,44.60
2018-05-29T09:40:20.979Z,44.30
2018-05-29T09:43:53.464Z,44.10
2018-05-29T09:47:25.941Z,44.30
2018-05-29T09:50:58.432Z,44.20
2018-05-29T09:54:30.953Z,43.20
2018-05-29T09:58:03.429Z,43.10
2018-05-29T10:01:35.916Z,42.90
2018-05-29T10:05:08.424Z,42.50
2018-05-29T10:08:40.903Z,42.40
2018-05-29T10:12:13.407Z,42.20
2018-05-29T10:15:45.892Z,41.90
2018-05-29T10:19:18.380Z,40.80
2018-05-29T10:22:50.864Z,40.50
2018-05-29T10:26:23.758Z,40.70
2018-05-29T10:29:56.250Z,40.60
2018-05-29T10:33:28.719Z,40.90
2018-05-29T10:37:01.215Z,41.40
2018-05-29T10:40:33.689Z,41.60
2018-05-29T10:44:06.180Z,41.80
2018-05-29T10:47:39.427Z,42.80
2018-05-29T10:51:11.915Z,42.40
2018-05-29T10:54:44.416Z,42.90
2018-05-29T10:58:16.895Z,42.80
2018-05-29T11:01:49.384Z,42.80
2018-05-29T11:05:21.886Z,42.50
2018-05-29T11:08:54.380Z,42.30
2018-05-29T11:12:26.855Z,42.00
2018-05-29T11:15:59.345Z,42.50
2018-05-29T11:19:31.836Z,43.20
2018-05-29T11:23:04.319Z,42.80
2018-05-29T11:26:36.820Z,42.60
2018-05-29T11:30:10.055Z,41.20
2018-05-29T11:33:42.543Z,41.10
2018-05-29T11:37:15.019Z,41.00
2018-05-29T11:40:47.512Z,41.10
2018-05-29T11:44:19.987Z,40.70
2018-05-29T11:47:52.480Z,39.90
2018-05-29T11:51:24.955Z,40.00
2018-05-29T11:54:57.495Z,39.50
2018-05-29T11:58:29.936Z,38.40
2018-05-29T12:02:02.422Z,38.30
2018-05-29T12:05:34.907Z,38.10
2018-05-29T12:09:07.380Z,38.60
2018-05-29T12:12:39.885Z,38.50
2018-05-29T12:16:12.355Z,38.30
2018-05-29T12:19:44.851Z,37.80
2018-05-29T12:23:17.333Z,37.30
2018-05-29T12:26:49.833Z,36.30
2018-05-29T12:30:23.100Z,36.70
2018-05-29T12:33:55.589Z,36.70
2018-05-29T12:37:28.071Z,37.20
2018-05-29T12:41:00.563Z,37.90
2018-05-29T12:44:33.049Z,39.10
2018-05-29T12:48:05.555Z,40.10
2018-05-29T12:51:38.032Z,39.50
2018-05-29T12:55:11.293Z,39.80
2018-05-29T12:58:43.779Z,39.70
2018-05-29T13:02:16.259Z,38.90
2018-05-29T13:05:48.763Z,38.20
2018-05-29T13:09:22.011Z,37.80
2018-05-29T13:12:54.508Z,37.80
2018-05-29T13:16:26.996Z,37.60
2018-05-29T13:19:59.486Z,37.20
2018-05-29T13:23:31.966Z,37.10
2018-05-29T13:27:04.524Z,37.10
2018-05-29T13:30:37.726Z,37.40
2018-05-29T13:34:10.209Z,37.40
2018-05-29T13:37:42.685Z,37.40
2018-05-29T13:41:15.185Z,36.90
2018-05-29T13:44:47.679Z,37.10
2018-05-29T13:48:20.176Z,36.80
2018-05-29T13:51:52.660Z,36.50
2018-05-29T13:55:25.140Z,36.20
2018-05-29T13:58:57.618Z,35.70
2018-05-29T14:02:30.103Z,36.10
2018-05-29T14:06:02.592Z,35.90
2018-05-29T14:09:35.833Z,36.50
2018-05-29T14:13:08.344Z,36.50
2018-05-29T14:16:40.812Z,37.20
2018-05-29T14:20:13.305Z,37.50
2018-05-29T14:23:45.802Z,37.60
2018-05-29T14:27:18.282Z,37.90
2018-05-29T14:30:50.767Z,38.60
2018-05-29T14:34:23.274Z,39.20
2018-05-29T14:37:56.510Z,40.10
2018-05-29T14:41:29.004Z,40.10
2018-05-29T14:45:01.502Z,40.30
2018-05-29T14:48:33.983Z,40.90
2018-05-29T14:52:06.470Z,41.50
2018-05-29T14:55:38.977Z,42.10
2018-05-29T14:59:12.232Z,42.80
2018-05-29T15:02:44.715Z,42.70
2018-05-29T15:06:17.221Z,43.50
2018-05-29T15:09:49.707Z,44.20
2018-05-29T15:13:22.216Z,44.80
2018-05-29T15:16:55.463Z,45.30
2018-05-29T15:20:27.954Z,45.30
2018-05-29T15:24:00.432Z,45.00
2018-05-29T15:27:32.912Z,44.80
2018-05-29T15:31:05.399Z,44.20
2018-05-29T15:34:37.884Z,44.40
2018-05-29T15:38:10.373Z,44.40
2018-05-29T15:41:42.857Z,44.10
2018-05-29T15:45:15.347Z,43.60
2018-05-29T15:48:47.825Z,43.60
2018-05-29T15:52:20.333Z,43.40
2018-05-29T15:55:53.577Z,44.80
2018-05-29T15:59:26.080Z,44.80
2018-05-29T16:02:58.565Z,45.20
2018-05-29T16:06:31.067Z,45.20
2018-05-29T16:10:03.538Z,44.70
2018-05-29T16:13:36.032Z,43.90
2018-05-29T16:17:09.272Z,43.10
2018-05-29T16:20:41.764Z,43.00
2018-05-29T16:24:14.246Z,42.90
2018-05-29T16:27:46.737Z,43.40
2018-05-29T16:31:19.212Z,43.90
2018-05-29T16:38:32.510Z,47.00
2018-05-29T16:42:04.956Z,47.80
2018-05-29T16:45:37.455Z,48.30
2018-05-29T16:49:09.966Z,49.00
2018-05-29T16:52:42.437Z,49.30
2018-05-29T16:56:14.919Z,49.60
2018-05-29T16:59:47.568Z,49.80
2018-05-29T17:03:20.040Z,50.00
2018-05-29T17:06:52.520Z,50.60
2018-05-29T17:10:24.991Z,51.50
2018-05-29T17:13:57.472Z,52.40
2018-05-29T17:17:29.965Z,53.40
2018-05-29T17:21:02.428Z,54.60
2018-05-29T17:24:34.935Z,55.70
2018-05-29T17:28:07.414Z,57.00
2018-05-29T17:31:39.877Z,58.00
2018-05-29T17:35:12.357Z,59.20
2018-05-29T17:38:44.873Z,59.80
2018-05-29T17:42:17.360Z,60.50
2018-05-29T17:45:49.911Z,61.40
2018-05-29T17:49:22.391Z,62.00
2018-05-29T17:52:54.859Z,62.50
2018-05-29T17:56:28.111Z,63.70
2018-05-29T18:00:00.603Z,63.70
2018-05-29T18:03:33.081Z,64.50
2018-05-29T18:07:05.557Z,64.90
2018-05-29T18:10:38.032Z,65.10
2018-05-29T18:14:10.507Z,64.90
2018-05-29T18:17:42.979Z,64.40
2018-05-29T18:21:15.460Z,63.90
2018-05-29T18:24:47.948Z,64.10
2018-05-29T18:28:20.424Z,63.90
2018-05-29T18:31:52.920Z,63.10
2018-05-29T18:35:25.396Z,63.00
2018-05-29T18:38:57.877Z,62.40
2018-05-29T18:42:30.363Z,62.60
2018-05-29T18:46:02.849Z,63.00
2018-05-29T18:49:35.345Z,63.70
2018-05-29T18:53:08.043Z,64.30
2018-05-29T18:56:40.875Z,64.60
2018-05-29T19:00:13.461Z,65.10
2018-05-29T19:03:46.674Z,65.40
2018-05-29T19:07:19.222Z,66.20
2018-05-29T19:10:51.773Z,67.00
2018-05-29T19:14:24.353Z,67.40
2018-05-29T19:17:56.941Z,67.70
2018-05-29T19:21:29.407Z,67.60
2018-05-29T19:25:02.164Z,68.10
2018-05-29T19:28:34.672Z,69.00
2018-05-29T19:32:08.100Z,69.20
2018-05-29T19:35:41.371Z,71.40
2018-05-29T19:39:13.856Z,71.40
2018-05-29T19:42:46.370Z,79.90
2018-05-29T19:46:18.849Z,83.10
2018-05-29T19:49:51.349Z,84.60
2018-05-29T19:53:24.588Z,87.00
2018-05-29T19:56:57.075Z,87.70
2018-05-29T20:00:29.564Z,86.50
2018-05-29T20:04:02.061Z,87.00
2018-05-29T20:07:34.557Z,86.70
2018-05-29T20:11:07.041Z,86.30
2018-05-29T20:14:39.541Z,87.10
2018-05-29T20:18:12.775Z,88.10
2018-05-29T20:21:45.264Z,87.90
2018-05-29T20:25:17.742Z,87.90
2018-05-29T20:28:50.232Z,88.20
2018-05-29T20:32:24.380Z,87.10
2018-05-29T20:35:58.168Z,87.30
2018-05-29T20:39:30.654Z,87.60
2018-05-29T20:43:04.506Z,87.10
2018-05-29T20:46:37.215Z,86.70
2018-05-29T20:50:10.581Z,86.40
2018-05-29T20:53:43.113Z,86.30
2018-05-29T20:57:15.632Z,86.10
2018-05-29T21:00:48.128Z,85.90
2018-05-29T21:04:20.725Z,85.90
2018-05-29T21:07:53.257Z,85.80
2018-05-29T21:11:26.376Z,85.80
2018-05-29T21:14:58.876Z,85.50
2018-05-29T21:18:31.715Z,85.60
2018-05-29T21:22:04.217Z,85.80
2018-05-29T21:25:36.697Z,85.90
2018-05-29T21:29:09.187Z,86.00
2018-05-29T21:32:41.689Z,86.10
2018-05-29T21:36:14.281Z,86.00
2018-05-29T21:39:46.804Z,85.10
2018-05-29T21:43:19.292Z,85.30
2018-05-29T21:46:51.859Z,85.10
2018-05-29T21:50:25.119Z,84.80
2018-05-29T21:53:58.673Z,84.70
2018-05-29T21:57:31.943Z,85.60
2018-05-29T22:01:05.212Z,85.60
2018-05-29T22:04:37.759Z,85.60
2018-05-29T22:08:11.371Z,85.60
2018-05-29T22:11:50.885Z,85.50
2018-05-29T22:15:23.397Z,85.30
2018-05-29T22:18:55.882Z,84.80
2018-05-29T22:22:29.049Z,84.70
2018-05-29T22:26:01.599Z,84.50
2018-05-29T22:29:34.124Z,84.20
2018-05-29T22:33:07.439Z,84.40
2018-05-29T22:36:39.945Z,84.20
2018-05-29T22:40:12.432Z,84.30
2018-05-29T22:43:45.043Z,84.40
2018-05-29T22:47:17.564Z,84.70
2018-05-29T22:50:50.812Z,84.50
2018-05-29T22:54:23.317Z,84.50
2018-05-29T22:57:55.843Z,84.30
2018-05-29T23:01:28.341Z,84.20
2018-05-29T23:05:00.845Z,84.40
2018-05-29T23:08:33.327Z,84.50
2018-05-29T23:12:05.821Z,84.50
2018-05-29T23:15:38.325Z,84.30
2018-05-29T23:19:10.806Z,84.20
2018-05-29T23:22:43.290Z,84.10
2018-05-29T23:26:16.535Z,84.20
2018-05-29T23:29:49.033Z,84.20
2018-05-29T23:33:21.509Z,84.20
2018-05-29T23:36:53.988Z,84.20
2018-05-29T23:40:26.464Z,84.20
2018-05-29T23:43:58.949Z,84.00
2018-05-29T23:47:32.848Z,83.90
2018-05-29T23:51:05.360Z,83.90
2018-05-29T23:54:37.900Z,84.00
2018-05-29T23:58:10.393Z,83.80
